Newport, OR (97365)

12:22 AM PST on February 12, 2016 (GMT -0800)
Schooner Point (new) | | Change Station
CLOSE
Current Station
Personal Weather Station
Location: Newport, OR
Elevation: 120 ft
Nearby Weather Stations

Elev 120 ft 44.69 °N, 124.07 °W | Updated 10 seconds ago

Partly Cloudy
Partly Cloudy
55.1 °F
Feels Like 55.1 °F
N
10.0
Wind Variable Wind from SSE
Gusts 17.0 mph

Today
High -- | Low -- °F
--% Chance of Precip.
Yesterday
High -- | Low -- °F
Precip. -- in
Pressure 30.15 in
Visibility 2.5 miles
Clouds Scattered Clouds 300 ft
Mostly Cloudy 3000 ft
Overcast 4700 ft
Dew Point 54 °F
Humidity 95%
Rainfall 0.00 in
Snow Depth Not available.
7:21 AM 5:39 PM
Waxing Crescent, 18% visible
METAR KONP 120815Z AUTO 18009G15KT 2 1/2SM BR SCT003 BKN030 OVC047 12/12 A3015 RMK AO2
Pressure 30.15 in
Visibility 2.5 miles
Clouds Scattered Clouds 300 ft
Mostly Cloudy 3000 ft
Overcast 4700 ft
Dew Point 54 °F
Humidity 95%
Rainfall 0.00 in
Snow Depth Not available.
7:21 AM 5:39 PM
Waxing Crescent, 18% visible
METAR KONP 120815Z AUTO 18009G15KT 2 1/2SM BR SCT003 BKN030 OVC047 12/12 A3015 RMK AO2

10-Day Weather Forecast

Almanac

Astronomy

Feb. 12, 2016 Rise Set
Actual Time
Civil Twilight
Nautical Twilight
Astronomical Twilight
Moon
Length of Visible Light
Length of Day
Tomorrow will be .
, % of the Moon is Illuminated

Today's Extremes

State Highs State Lows

Community

WunderPhotos

Upload Photos

1,892,284 photos uploaded!

WunderBlog® & News

Nearby

Air Quality

  Air Quality AQ Index Pollutant
Not available.

Snow Depth

Station Depth Elevation

Earthquake Activity

City Distance Mag. Time & Date
Minimum magnitude displayed is 2.5.

Coastal Water Temperatures

Place Temperature

Stations

Nearby Weather Stations

Station Location Temp. Windchill Dew Point Humidity Wind Precip. Elev Updated Type
                   

Watches & Warnings

There are currently no watches in effect.